createdAt,value
2022-08-28T00:01:27.300Z,100308.34
2022-08-28T00:04:23.973Z,100306.24
2022-08-28T00:07:28.714Z,100305.70
2022-08-28T00:10:25.480Z,100311.56
2022-08-28T00:13:23.069Z,100304.42
2022-08-28T00:16:17.929Z,100306.94
2022-08-28T00:19:11.677Z,100307.32
2022-08-28T00:22:05.428Z,100308.33
2022-08-28T00:24:59.678Z,100308.45
2022-08-28T00:27:55.691Z,100303.05
2022-08-28T00:30:51.294Z,100301.61
2022-08-28T00:33:49.124Z,100300.52
2022-08-28T00:36:44.685Z,100296.27
2022-08-28T00:39:38.416Z,100297.31
2022-08-28T00:42:38.765Z,100299.19
2022-08-28T00:45:39.531Z,100296.88
2022-08-28T00:48:35.216Z,100294.77
2022-08-28T00:51:47.616Z,100294.83
2022-08-28T00:54:56.893Z,100290.23
2022-08-28T00:57:55.747Z,100290.45
2022-08-28T01:00:50.203Z,100285.91
2022-08-28T01:03:45.444Z,100287.45
2022-08-28T01:06:57.749Z,100284.48
2022-08-28T01:10:09.557Z,100288.37
2022-08-28T01:13:11.421Z,100287.96
2022-08-28T01:16:07.221Z,100283.17
2022-08-28T01:19:01.543Z,100288.17
2022-08-28T01:22:01.810Z,100288.59
2022-08-28T01:24:57.977Z,100289.17
2022-08-28T01:27:52.164Z,100290.30
2022-08-28T01:30:47.751Z,100287.55
2022-08-28T01:33:44.028Z,100292.75
2022-08-28T01:36:36.318Z,100291.56
2022-08-28T01:39:30.640Z,100288.03
2022-08-28T01:42:24.537Z,100284.58
2022-08-28T01:45:21.551Z,100284.84
2022-08-28T01:48:15.480Z,100284.45
2022-08-28T01:51:11.090Z,100281.94
2022-08-28T01:54:04.452Z,100287.35
2022-08-28T01:56:58.316Z,100285.95
2022-08-28T01:59:54.361Z,100280.82
2022-08-28T02:02:49.415Z,100283.90
2022-08-28T02:05:44.511Z,100282.08
2022-08-28T02:08:37.197Z,100277.96
2022-08-28T02:11:33.133Z,100279.88
2022-08-28T02:14:25.121Z,100274.48
2022-08-28T02:17:21.094Z,100274.15
2022-08-28T02:20:16.711Z,100267.64
2022-08-28T02:23:12.211Z,100269.44
2022-08-28T02:26:04.792Z,100271.27
2022-08-28T02:28:59.051Z,100269.90
2022-08-28T02:31:54.900Z,100268.46
2022-08-28T02:34:48.658Z,100265.21
2022-08-28T02:37:45.439Z,100263.35
2022-08-28T02:40:42.748Z,100268.40
2022-08-28T02:43:36.861Z,100274.27
2022-08-28T02:46:33.661Z,100273.33
2022-08-28T02:49:35.515Z,100274.62
2022-08-28T02:52:30.641Z,100271.84
2022-08-28T02:55:25.993Z,100260.39
2022-08-28T02:58:20.635Z,100268.29
2022-08-28T03:01:16.641Z,100274.88
2022-08-28T03:04:09.862Z,100269.92
2022-08-28T03:07:04.983Z,100269.87
2022-08-28T03:09:58.049Z,100269.10
2022-08-28T03:12:53.537Z,100266.45
2022-08-28T03:15:46.770Z,100268.85
2022-08-28T03:18:44.764Z,100267.84
2022-08-28T03:21:41.320Z,100261.96
2022-08-28T03:24:34.651Z,100262.05
2022-08-28T03:27:29.683Z,100261.91
2022-08-28T03:30:24.664Z,100267.50
2022-08-28T03:33:19.055Z,100264.70
2022-08-28T03:36:15.071Z,100268.45
2022-08-28T03:39:09.628Z,100263.48
2022-08-28T03:42:04.601Z,100264.31
2022-08-28T03:44:59.067Z,100259.98
2022-08-28T03:47:51.821Z,100261.32
2022-08-28T03:50:47.628Z,100265.63
2022-08-28T03:53:43.053Z,100264.70
2022-08-28T03:56:37.025Z,100265.38
2022-08-28T03:59:33.737Z,100268.26
2022-08-28T04:02:26.784Z,100272.02
2022-08-28T04:05:26.745Z,100273.47
2022-08-28T04:08:22.673Z,100271.98
2022-08-28T04:11:18.506Z,100274.44
2022-08-28T04:14:12.573Z,100283.80
2022-08-28T04:17:06.932Z,100289.77
2022-08-28T04:20:01.836Z,100293.61
2022-08-28T04:23:00.422Z,100294.51
2022-08-28T04:25:57.417Z,100295.71
2022-08-28T04:28:53.714Z,100296.39
2022-08-28T04:31:50.334Z,100296.74
2022-08-28T04:34:43.118Z,100298.14
2022-08-28T04:37:36.942Z,100299.69
2022-08-28T04:40:32.868Z,100303.29
2022-08-28T04:43:27.674Z,100302.40
2022-08-28T04:46:24.634Z,100303.48
2022-08-28T04:49:20.326Z,100306.67
2022-08-28T04:52:16.233Z,100303.96
2022-08-28T04:55:12.026Z,100292.85
2022-08-28T04:58:08.218Z,100299.29
2022-08-28T05:01:24.421Z,100303.17
2022-08-28T05:04:26.021Z,100300.51
2022-08-28T05:07:30.038Z,100293.86
2022-08-28T05:10:32.034Z,100290.73
2022-08-28T05:13:40.891Z,100293.88
2022-08-28T05:16:43.592Z,100297.09
2022-08-28T05:19:39.539Z,100295.73
2022-08-28T05:22:38.853Z,100297.83
2022-08-28T05:25:45.632Z,100300.93
2022-08-28T05:28:51.692Z,100304.14
2022-08-28T05:31:48.306Z,100305.06
2022-08-28T05:34:46.749Z,100307.65
2022-08-28T05:37:45.313Z,100301.95
2022-08-28T05:40:45.445Z,100303.65
2022-08-28T05:43:41.248Z,100305.52
2022-08-28T05:46:47.515Z,100300.85
2022-08-28T05:49:46.823Z,100303.77
2022-08-28T05:52:42.038Z,100307.97
2022-08-28T05:55:36.617Z,100304.58
2022-08-28T05:58:36.338Z,100307.32
2022-08-28T06:01:44.200Z,100303.24
2022-08-28T06:04:41.834Z,100301.75
2022-08-28T06:07:47.669Z,100302.12
2022-08-28T06:10:57.191Z,100299.98
2022-08-28T06:14:10.331Z,100301.63
2022-08-28T06:17:07.392Z,100296.42
2022-08-28T06:20:20.622Z,100297.09
2022-08-28T06:23:24.081Z,100292.88
2022-08-28T06:26:23.728Z,100293.70
2022-08-28T06:29:21.301Z,100294.71
2022-08-28T06:32:24.414Z,100298.54
2022-08-28T06:35:28.718Z,100306.40
2022-08-28T06:38:27.382Z,100309.48
2022-08-28T06:41:23.063Z,100308.70
2022-08-28T06:44:27.045Z,100309.81
2022-08-28T06:47:36.011Z,100313.80
2022-08-28T06:50:44.773Z,100315.65
2022-08-28T06:54:00.747Z,100312.06
2022-08-28T06:57:08.960Z,100307.48
2022-08-28T07:00:05.336Z,100307.00
2022-08-28T07:03:18.296Z,100311.56
2022-08-28T07:06:28.969Z,100311.80
2022-08-28T07:09:32.754Z,100313.95
2022-08-28T07:12:33.479Z,100312.87
2022-08-28T07:15:41.937Z,100317.88
2022-08-28T07:18:58.975Z,100313.13
2022-08-28T07:21:54.732Z,100317.61
2022-08-28T07:24:59.867Z,100315.65
2022-08-28T07:28:01.972Z,100315.36
2022-08-28T07:31:10.820Z,100316.74
2022-08-28T07:34:18.976Z,100316.45
2022-08-28T07:37:19.960Z,100320.00
2022-08-28T07:40:22.664Z,100316.52
2022-08-28T07:43:40.163Z,100310.02
2022-08-28T07:46:44.188Z,100306.59
2022-08-28T07:49:43.717Z,100304.20
2022-08-28T07:52:39.800Z,100305.96
2022-08-28T07:55:41.459Z,100304.72
2022-08-28T07:58:43.405Z,100303.52
2022-08-28T08:01:51.958Z,100305.44
2022-08-28T08:04:48.679Z,100303.35
2022-08-28T08:08:03.132Z,100302.94
2022-08-28T08:11:11.260Z,100303.30
2022-08-28T08:14:19.043Z,100303.33
2022-08-28T08:17:24.113Z,100306.79
2022-08-28T08:20:27.498Z,100309.11
2022-08-28T08:23:31.915Z,100311.16
2022-08-28T08:26:40.019Z,100309.63
2022-08-28T08:29:43.733Z,100312.55
2022-08-28T08:33:00.008Z,100313.16
2022-08-28T08:36:08.011Z,100315.27
2022-08-28T08:39:06.509Z,100316.04
2022-08-28T08:42:28.809Z,100315.49
2022-08-28T08:45:35.549Z,100318.27
2022-08-28T08:48:36.198Z,100317.15
2022-08-28T08:51:46.581Z,100315.07
2022-08-28T08:55:22.341Z,100317.61
2022-08-28T08:58:46.047Z,100315.02
2022-08-28T09:02:05.157Z,100316.36
2022-08-28T09:05:12.060Z,100322.61
2022-08-28T09:08:27.114Z,100325.52
2022-08-28T09:11:35.645Z,100329.89
2022-08-28T09:14:45.046Z,100326.59
2022-08-28T09:17:53.165Z,100334.16
2022-08-28T09:21:02.835Z,100329.90
2022-08-28T09:24:19.051Z,100326.77
2022-08-28T09:27:39.351Z,100328.77
2022-08-28T09:30:40.809Z,100326.01
2022-08-28T09:33:50.760Z,100323.77
2022-08-28T09:37:00.048Z,100324.65
2022-08-28T09:40:21.363Z,100329.39
2022-08-28T09:43:29.605Z,100331.27
2022-08-28T09:46:25.028Z,100331.43
2022-08-28T09:49:36.403Z,100331.00
2022-08-28T09:52:41.657Z,100327.66
2022-08-28T09:55:55.092Z,100328.93
2022-08-28T09:58:58.007Z,100324.55
2022-08-28T10:02:22.680Z,100322.10
2022-08-28T10:05:26.684Z,100320.23
2022-08-28T10:08:41.571Z,100318.07
2022-08-28T10:12:00.010Z,100314.50
2022-08-28T10:15:18.092Z,100312.16
2022-08-28T10:18:44.098Z,100311.35
2022-08-28T10:21:53.158Z,100313.25
2022-08-28T10:25:04.564Z,100320.20
2022-08-28T10:28:30.151Z,100321.14
2022-08-28T10:31:40.772Z,100322.06
2022-08-28T10:34:53.953Z,100323.06
2022-08-28T10:38:03.130Z,100323.95
2022-08-28T10:41:07.182Z,100325.08
2022-08-28T10:44:11.224Z,100331.90
2022-08-28T10:47:16.168Z,100336.43
2022-08-28T10:50:16.855Z,100336.13
2022-08-28T10:53:23.753Z,100344.11
2022-08-28T10:56:23.113Z,100339.70
2022-08-28T10:59:26.061Z,100341.80
2022-08-28T11:02:30.685Z,100339.07
2022-08-28T11:05:53.813Z,100339.20
2022-08-28T11:09:00.925Z,100338.55
2022-08-28T11:12:11.090Z,100338.52
2022-08-28T11:15:45.308Z,100342.27
2022-08-28T11:19:15.159Z,100340.99
2022-08-28T11:22:14.448Z,100339.17
2022-08-28T11:25:19.523Z,100343.00
2022-08-28T11:28:44.144Z,100344.25
2022-08-28T11:31:48.722Z,100340.54
2022-08-28T11:35:04.089Z,100342.40
2022-08-28T11:38:15.544Z,100340.25
2022-08-28T11:41:30.206Z,100339.62
2022-08-28T11:44:49.815Z,100345.77
2022-08-28T11:48:06.221Z,100346.84
2022-08-28T11:51:16.372Z,100347.04
2022-08-28T11:54:28.144Z,100349.25
2022-08-28T11:57:27.881Z,100349.55
2022-08-28T12:00:57.155Z,100353.92
2022-08-28T12:04:08.476Z,100350.23
2022-08-28T12:07:28.465Z,100350.52
2022-08-28T12:11:02.222Z,100350.98
2022-08-28T12:14:04.139Z,100351.57
2022-08-28T12:17:22.040Z,100353.46
2022-08-28T12:20:51.102Z,100356.65
2022-08-28T12:24:07.245Z,100363.58
2022-08-28T12:27:11.200Z,100366.64
2022-08-28T12:30:20.173Z,100363.73
2022-08-28T12:33:37.218Z,100362.39
2022-08-28T12:36:34.555Z,100359.16
2022-08-28T12:39:39.654Z,100355.27
2022-08-28T12:42:41.899Z,100349.90
2022-08-28T12:45:42.110Z,100352.17
2022-08-28T12:49:02.196Z,100350.64
2022-08-28T12:52:17.231Z,100342.31
2022-08-28T12:55:22.429Z,100342.55
2022-08-28T12:58:40.194Z,100339.70
2022-08-28T13:01:37.891Z,100335.69
2022-08-28T13:04:39.741Z,100329.52
2022-08-28T13:08:02.214Z,100328.02
2022-08-28T13:11:21.169Z,100327.04
2022-08-28T13:14:43.584Z,100325.92
2022-08-28T13:17:56.277Z,100322.13
2022-08-28T13:21:01.867Z,100322.73
2022-08-28T13:24:40.485Z,100315.13
2022-08-28T13:27:44.213Z,100311.39
2022-08-28T13:30:50.682Z,100308.66
2022-08-28T13:34:04.180Z,100307.61
2022-08-28T13:37:20.023Z,100311.77
2022-08-28T13:40:36.853Z,100310.61
2022-08-28T13:43:33.329Z,100313.73
2022-08-28T13:46:39.052Z,100312.93
2022-08-28T13:49:51.124Z,100314.24
2022-08-28T13:52:47.034Z,100317.91
2022-08-28T13:55:47.249Z,100321.13
2022-08-28T13:58:57.309Z,100326.02
2022-08-28T14:02:24.932Z,100319.30
2022-08-28T14:05:23.121Z,100323.55
2022-08-28T14:08:25.430Z,100315.34
2022-08-28T14:11:27.517Z,100313.48
2022-08-28T14:14:32.234Z,100309.23
2022-08-28T14:17:41.979Z,100307.69
2022-08-28T14:20:45.070Z,100304.48
2022-08-28T14:23:41.559Z,100303.20
2022-08-28T14:26:52.245Z,100300.38
2022-08-28T14:29:58.308Z,100299.88
2022-08-28T14:33:14.368Z,100301.65
2022-08-28T14:36:19.089Z,100303.23
2022-08-28T14:39:21.129Z,100306.84
2022-08-28T14:42:24.330Z,100313.14
2022-08-28T14:45:21.255Z,100319.01
2022-08-28T14:48:21.062Z,100323.92
2022-08-28T14:51:20.976Z,100322.89
2022-08-28T14:54:26.281Z,100327.74
2022-08-28T14:57:33.956Z,100328.39
2022-08-28T15:00:44.346Z,100327.23
2022-08-28T15:03:47.597Z,100320.00
2022-08-28T15:06:48.562Z,100310.30
2022-08-28T15:09:57.185Z,100299.18
2022-08-28T15:13:03.863Z,100299.39
2022-08-28T15:16:27.948Z,100307.67
2022-08-28T15:19:38.934Z,100315.57
2022-08-28T15:22:46.838Z,100324.42
2022-08-28T15:25:43.252Z,100326.54
2022-08-28T15:28:48.525Z,100327.61
2022-08-28T15:31:53.305Z,100336.52
2022-08-28T15:34:57.559Z,100338.73
2022-08-28T15:38:01.303Z,100341.32
2022-08-28T15:41:25.309Z,100342.36
2022-08-28T15:44:28.152Z,100337.73
2022-08-28T15:47:26.113Z,100339.50
2022-08-28T15:50:27.316Z,100337.85
2022-08-28T15:53:31.286Z,100338.22
2022-08-28T15:56:31.333Z,100341.44
2022-08-28T15:59:48.603Z,100337.89
2022-08-28T16:02:52.325Z,100340.04
2022-08-28T16:05:52.364Z,100341.27
2022-08-28T16:08:50.640Z,100338.05
2022-08-28T16:11:55.328Z,100330.20
2022-08-28T16:15:01.385Z,100324.69
2022-08-28T16:18:08.324Z,100320.30
2022-08-28T16:21:14.406Z,100313.86
2022-08-28T16:24:16.321Z,100315.05
2022-08-28T16:27:21.450Z,100318.27
2022-08-28T16:30:19.559Z,100316.66
2022-08-28T16:33:28.186Z,100309.47
2022-08-28T16:36:30.148Z,100303.45
2022-08-28T16:39:26.292Z,100299.25
2022-08-28T16:42:35.514Z,100297.59
2022-08-28T16:45:38.356Z,100294.23
2022-08-28T16:48:37.249Z,100299.36
2022-08-28T16:51:41.460Z,100299.08
2022-08-28T16:54:48.636Z,100303.96
2022-08-28T16:58:00.403Z,100311.04
2022-08-28T17:01:06.404Z,100315.96
2022-08-28T17:04:14.483Z,100313.40
2022-08-28T17:07:20.495Z,100312.38
2022-08-28T17:10:26.270Z,100314.35
2022-08-28T17:13:33.353Z,100318.36
2022-08-28T17:16:32.029Z,100316.27
2022-08-28T17:19:32.348Z,100313.42
2022-08-28T17:22:41.109Z,100318.35
2022-08-28T17:25:42.400Z,100328.00
2022-08-28T17:28:49.043Z,100334.95
2022-08-28T17:31:48.439Z,100340.08
2022-08-28T17:34:47.866Z,100349.32
2022-08-28T17:37:55.262Z,100362.42
2022-08-28T17:41:00.084Z,100361.40
2022-08-28T17:43:59.803Z,100369.44
2022-08-28T17:47:00.945Z,100374.33
2022-08-28T17:50:06.445Z,100376.98
2022-08-28T17:53:17.776Z,100376.86
2022-08-28T17:56:16.350Z,100384.11
2022-08-28T17:59:24.279Z,100394.41
2022-08-28T18:02:23.093Z,100395.27
2022-08-28T18:05:32.493Z,100387.27
2022-08-28T18:08:38.685Z,100388.92
2022-08-28T18:11:42.432Z,100395.52
2022-08-28T18:14:52.392Z,100396.14
2022-08-28T18:17:58.163Z,100391.55
2022-08-28T18:21:09.420Z,100391.98
2022-08-28T18:24:13.372Z,100391.23
2022-08-28T18:27:23.144Z,100390.95
2022-08-28T18:30:31.438Z,100389.72
2022-08-28T18:33:38.420Z,100389.22
2022-08-28T18:36:41.910Z,100391.95
2022-08-28T18:39:49.508Z,100390.45
2022-08-28T18:42:54.380Z,100381.09
2022-08-28T18:46:04.787Z,100378.93
2022-08-28T18:49:04.764Z,100379.68
2022-08-28T18:52:00.093Z,100383.67
2022-08-28T18:55:17.418Z,100382.38
2022-08-28T18:58:18.250Z,100384.55
2022-08-28T19:01:25.540Z,100387.86
2022-08-28T19:04:24.428Z,100393.37
2022-08-28T19:07:29.430Z,100398.58
2022-08-28T19:10:35.514Z,100402.27
2022-08-28T19:13:34.518Z,100413.83
2022-08-28T19:16:38.224Z,100422.66
2022-08-28T19:19:47.460Z,100429.52
2022-08-28T19:22:50.658Z,100433.63
2022-08-28T19:25:58.380Z,100428.56
2022-08-28T19:28:59.299Z,100424.95
2022-08-28T19:32:04.026Z,100423.39
2022-08-28T19:35:13.489Z,100431.29
2022-08-28T19:38:28.891Z,100444.64
2022-08-28T19:41:32.449Z,100452.11
2022-08-28T19:44:32.517Z,100459.88
2022-08-28T19:47:39.481Z,100464.85
2022-08-28T19:50:51.434Z,100463.46
2022-08-28T19:53:58.259Z,100458.16
2022-08-28T19:57:00.418Z,100455.97
2022-08-28T20:00:04.137Z,100457.75
2022-08-28T20:03:05.497Z,100464.45
2022-08-28T20:06:13.439Z,100465.89
2022-08-28T20:09:13.192Z,100463.09
2022-08-28T20:12:15.553Z,100459.50
2022-08-28T20:15:22.472Z,100466.05
2022-08-28T20:18:18.653Z,100474.80
2022-08-28T20:21:25.827Z,100478.92
2022-08-28T20:24:46.792Z,100488.48
2022-08-28T20:27:59.541Z,100486.20
2022-08-28T20:31:15.953Z,100492.65
2022-08-28T20:34:24.494Z,100498.34
2022-08-28T20:37:34.455Z,100511.01
2022-08-28T20:40:56.484Z,100510.60
2022-08-28T20:44:02.275Z,100507.06
2022-08-28T20:47:04.246Z,100504.26
2022-08-28T20:50:12.500Z,100492.91
2022-08-28T20:53:37.578Z,100488.95
2022-08-28T20:56:51.526Z,100490.66
2022-08-28T20:59:56.984Z,100485.00
2022-08-28T21:03:02.930Z,100489.30
2022-08-28T21:06:03.364Z,100486.37
2022-08-28T21:09:04.739Z,100480.44
2022-08-28T21:12:02.794Z,100478.95
2022-08-28T21:15:06.489Z,100468.10
2022-08-28T21:18:03.862Z,100452.67
2022-08-28T21:21:08.176Z,100440.20
2022-08-28T21:24:17.633Z,100435.80
2022-08-28T21:27:18.546Z,100446.66
2022-08-28T21:30:18.259Z,100462.14
2022-08-28T21:33:21.515Z,100474.19
2022-08-28T21:36:25.697Z,100489.88
2022-08-28T21:39:25.567Z,100501.78
2022-08-28T21:42:22.371Z,100511.86
2022-08-28T21:45:31.527Z,100524.54
2022-08-28T21:48:28.230Z,100536.71
2022-08-28T21:51:28.752Z,100536.56
2022-08-28T21:54:29.090Z,100539.50
2022-08-28T21:57:24.631Z,100542.11
2022-08-28T22:00:25.240Z,100541.70
2022-08-28T22:03:27.607Z,100537.17
2022-08-28T22:06:25.475Z,100541.11
2022-08-28T22:09:23.356Z,100546.21
2022-08-28T22:12:25.535Z,100546.52
2022-08-28T22:15:25.825Z,100548.95
2022-08-28T22:18:22.319Z,100546.77
2022-08-28T22:21:50.487Z,100552.65
2022-08-28T22:24:53.461Z,100557.23
2022-08-28T22:27:49.664Z,100560.44
2022-08-28T22:30:45.729Z,100560.27
2022-08-28T22:33:53.598Z,100562.61
2022-08-28T22:36:52.869Z,100568.67
2022-08-28T22:39:52.570Z,100567.00
2022-08-28T22:42:46.009Z,100566.75
2022-08-28T22:45:47.493Z,100572.20
2022-08-28T22:48:44.662Z,100573.20
2022-08-28T22:51:37.773Z,100577.95
2022-08-28T22:54:36.372Z,100576.73
2022-08-28T22:57:31.469Z,100573.66
2022-08-28T23:00:30.983Z,100571.33
2022-08-28T23:03:28.638Z,100572.98
2022-08-28T23:06:24.268Z,100571.09
2022-08-28T23:09:24.080Z,100572.58
2022-08-28T23:12:21.732Z,100574.05
2022-08-28T23:15:23.490Z,100572.64
2022-08-28T23:18:19.233Z,100575.95
2022-08-28T23:21:15.685Z,100579.08
2022-08-28T23:24:16.631Z,100577.11
2022-08-28T23:27:35.302Z,100581.98
2022-08-28T23:30:35.289Z,100579.67
2022-08-28T23:33:30.297Z,100587.21
2022-08-28T23:36:25.358Z,100580.98
2022-08-28T23:39:20.496Z,100580.33
2022-08-28T23:42:16.148Z,100580.27
2022-08-28T23:45:12.320Z,100578.33
2022-08-28T23:48:06.935Z,100578.95
2022-08-28T23:51:04.084Z,100578.63
2022-08-28T23:53:58.727Z,100580.30
2022-08-28T23:56:55.431Z,100584.73
2022-08-28T23:59:52.576Z,100589.23
